Atlee, Canada
Current Conditions -  °F | °C
As of 7:10 AM on Wednesday 28 Jan 2015 (Local Time) from CYXH Reporting Station
Haze Haze  
Wind Chill: 22°   Ceiling: 500
Heat Index: 30°   Visibility: 4mi
Dew Point: 30°   Wind: 9mph
Humidity: 100%   Direction: 280°W
Pressure: 30.12"   Gusts: NA
Location:  50.85°N, 110.95°W
Report Text: CYXH 281410Z 28008KT 4SM BR OVC005 M01/M01 A3012 RMK ST8 SLP223
Loading
Personal Weather Stations






























Interactive Weather Map New forecast layout! Learn more

10-Day Weather Forecast

Advertisements
Track Severe Weather on mobile